首页
METAR-TAF:

METAR-TAF

机场 :

Pensacola Regional Airport

彭萨科拉, 佛罗里达州, 美国

纬度: 30-28-41N, 经度: 087-11-13W, 海拔: 36米

当前天气观测

该预报发布于17分钟前的12:25 UTC
风速7节,风向东转东北
温度 24°C
湿度 94%
气压 1019 hPa
能見度: 16.1公里
多云层高于1800英尺

METAR: KPNS 161225Z 07007KT 10SM BKN018 24/23 A3010 RMK AO2 T02440233 $

时间: 07:42 (12:42 UTC)

预报

该预报发布于56分钟前的11:46 UTC
预报有效从16日的 12点(UTC)到 17日的 12点(UTC)
风速3节,风向多变
能見度: 10公里
少量云层高于15000英尺
附近有阵雨
从 16日的 1500点(UTC)
风速8节,风向南转南东
能見度: 10公里
散云层高于4000英尺, 积雨云.
散云层高于25000英尺
附近有雷暴
从 16日的 2100点(UTC)
风速6节,风向
能見度: 10公里
少量云层高于5000英尺
多云层高于25000英尺
附近有阵雨
从 17日的 0300点(UTC)
风速3节,风向多变
能見度: 10公里
散云层高于5000英尺
多云层高于25000英尺

TAF: KPNS 161146Z 1612/1712 VRB03KT P6SM VCSH FEW150 FM161500 15008KT P6SM VCTS SCT040CB SCT250 FM162100 19006KT P6SM VCSH FEW050 BKN250 FM170300 VRB03KT P6SM SCT050 BKN250

超过4000个机场的气象观测和天气预报(METAR&TAF报告)。

可查询的气象台以黄色和红色小点在地图上表示。

将鼠标移到小点上方,可查看气象台名称。

然后点击查看天气观测和预报。

如需切换地图:点击带黑十字的绿色按钮放大地图;点击带横线的绿色按钮缩小地图;或者点击绿色箭头查看邻近地区的地图。


METAR-TAF: